createdAt,value
2017-12-25T00:01:09.622Z,3.50
2017-12-25T00:03:36.131Z,3.50
2017-12-25T00:06:03.315Z,3.50
2017-12-25T00:08:29.816Z,3.50
2017-12-25T00:10:57.019Z,3.40
2017-12-25T00:13:23.487Z,3.40
2017-12-25T00:15:49.939Z,3.30
2017-12-25T00:18:17.124Z,3.30
2017-12-25T00:20:43.606Z,3.30
2017-12-25T00:23:10.232Z,3.30
2017-12-25T00:25:36.813Z,3.30
2017-12-25T00:28:03.268Z,3.20
2017-12-25T00:30:29.716Z,3.30
2017-12-25T00:32:56.195Z,3.20
2017-12-25T00:35:23.396Z,3.30
2017-12-25T00:37:49.840Z,3.30
2017-12-25T00:40:16.316Z,3.30
2017-12-25T00:42:43.652Z,3.30
2017-12-25T00:45:10.192Z,3.30
2017-12-25T00:47:36.696Z,3.30
2017-12-25T00:50:03.188Z,3.30
2017-12-25T00:52:29.673Z,3.30
2017-12-25T00:54:56.188Z,3.40
2017-12-25T00:57:22.727Z,3.40
2017-12-25T00:59:49.253Z,3.40
2017-12-25T01:02:15.762Z,3.40
2017-12-25T01:04:42.198Z,3.40
2017-12-25T01:07:08.711Z,3.40
2017-12-25T01:09:35.903Z,3.30
2017-12-25T01:12:02.408Z,3.30
2017-12-25T01:14:29.653Z,3.30
2017-12-25T01:16:56.847Z,3.30
2017-12-25T01:19:23.335Z,3.30
2017-12-25T01:21:50.598Z,3.30
2017-12-25T01:24:17.887Z,3.30
2017-12-25T01:26:44.404Z,3.20
2017-12-25T01:29:10.856Z,3.30
2017-12-25T01:31:37.324Z,3.20
2017-12-25T01:34:03.775Z,3.10
2017-12-25T01:36:31.118Z,3.20
2017-12-25T01:38:58.391Z,3.20
2017-12-25T01:41:25.639Z,3.20
2017-12-25T01:43:52.879Z,3.10
2017-12-25T01:46:20.116Z,3.10
2017-12-25T01:48:47.351Z,3.10
2017-12-25T01:51:13.963Z,3.10
2017-12-25T01:53:44.195Z,3.10
2017-12-25T01:59:13.860Z,3.20
2017-12-25T02:01:47.309Z,3.10
2017-12-25T02:04:16.654Z,3.10
2017-12-25T02:06:55.276Z,3.10
2017-12-25T02:09:28.581Z,3.10
2017-12-25T02:11:55.700Z,3.10
2017-12-25T02:14:22.132Z,3.10
2017-12-25T02:16:48.511Z,3.10
2017-12-25T02:19:14.916Z,3.10
2017-12-25T02:21:42.018Z,3.00
2017-12-25T02:24:08.441Z,3.00
2017-12-25T02:26:34.959Z,3.00
2017-12-25T02:29:01.322Z,3.10
2017-12-25T02:31:27.797Z,3.00
2017-12-25T02:33:54.184Z,3.00
2017-12-25T02:36:20.665Z,3.00
2017-12-25T02:38:47.855Z,3.00
2017-12-25T02:41:21.281Z,3.00
2017-12-25T02:43:47.726Z,3.00
2017-12-25T02:46:14.277Z,3.10
2017-12-25T02:48:40.652Z,3.10
2017-12-25T02:51:07.139Z,3.10
2017-12-25T02:53:34.258Z,3.00
2017-12-25T02:56:00.665Z,3.10
2017-12-25T02:58:27.180Z,3.10
2017-12-25T03:00:53.689Z,3.00
2017-12-25T03:03:20.820Z,2.90
2017-12-25T03:05:47.271Z,2.90
2017-12-25T03:08:14.432Z,3.00
2017-12-25T03:10:40.917Z,2.90
2017-12-25T03:13:07.349Z,3.00
2017-12-25T03:15:33.780Z,2.90
2017-12-25T03:18:00.174Z,2.90
2017-12-25T03:20:26.633Z,2.90
2017-12-25T03:22:53.040Z,2.90
2017-12-25T03:25:19.434Z,2.90
2017-12-25T03:27:46.626Z,2.90
2017-12-25T03:30:13.036Z,2.90
2017-12-25T03:32:40.247Z,2.90
2017-12-25T03:35:06.630Z,2.90
2017-12-25T03:37:33.049Z,2.90
2017-12-25T03:40:00.466Z,3.00
2017-12-25T03:42:26.872Z,3.00
2017-12-25T03:44:53.376Z,3.00
2017-12-25T03:47:19.773Z,3.00
2017-12-25T03:49:46.221Z,2.80
2017-12-25T03:52:13.445Z,2.80
2017-12-25T03:54:40.599Z,2.70
2017-12-25T03:57:06.982Z,2.70
2017-12-25T03:59:33.369Z,2.70
2017-12-25T04:01:59.796Z,2.70
2017-12-25T04:04:26.198Z,2.70
2017-12-25T04:06:52.669Z,2.80
2017-12-25T04:09:19.055Z,2.80
2017-12-25T04:11:45.483Z,2.70
2017-12-25T04:14:11.885Z,2.70
2017-12-25T04:16:38.978Z,2.60
2017-12-25T04:19:05.543Z,2.60
2017-12-25T04:21:31.910Z,2.60
2017-12-25T04:23:58.290Z,2.60
2017-12-25T04:26:24.742Z,2.60
2017-12-25T04:28:51.151Z,2.60
2017-12-25T04:31:17.544Z,2.50
2017-12-25T04:33:43.980Z,2.50
2017-12-25T04:36:10.405Z,2.30
2017-12-25T04:38:36.785Z,2.30
2017-12-25T04:41:03.152Z,2.30
2017-12-25T04:43:30.321Z,2.30
2017-12-25T04:45:56.733Z,2.30
2017-12-25T04:48:23.852Z,2.40
2017-12-25T04:50:50.234Z,2.30
2017-12-25T04:53:16.664Z,2.40
2017-12-25T04:55:43.038Z,2.40
2017-12-25T04:58:09.390Z,2.50
2017-12-25T05:00:35.881Z,2.50
2017-12-25T05:03:02.253Z,2.50
2017-12-25T05:05:28.621Z,2.40
2017-12-25T05:07:55.141Z,2.50
2017-12-25T05:10:22.428Z,2.60
2017-12-25T05:12:49.053Z,2.50
2017-12-25T05:15:15.452Z,2.60
2017-12-25T05:17:42.597Z,2.50
2017-12-25T05:20:09.107Z,2.60
2017-12-25T05:22:35.596Z,2.50
2017-12-25T05:25:02.026Z,2.50
2017-12-25T05:27:28.477Z,2.40
2017-12-25T05:29:54.861Z,2.30
2017-12-25T05:32:21.997Z,2.30
2017-12-25T05:34:48.379Z,2.30
2017-12-25T05:37:14.789Z,2.30
2017-12-25T05:39:41.145Z,2.30
2017-12-25T05:42:07.515Z,2.40
2017-12-25T05:44:34.013Z,2.40
2017-12-25T05:47:00.388Z,2.40
2017-12-25T05:49:26.809Z,2.40
2017-12-25T05:51:53.273Z,2.30
2017-12-25T05:54:20.646Z,2.30
2017-12-25T05:56:47.040Z,2.30
2017-12-25T05:59:13.422Z,2.20
2017-12-25T06:01:39.841Z,2.20
2017-12-25T06:04:06.214Z,2.20
2017-12-25T06:06:33.325Z,2.20
2017-12-25T06:08:59.738Z,2.20
2017-12-25T06:11:26.185Z,2.20
2017-12-25T06:13:52.585Z,2.10
2017-12-25T06:16:19.714Z,2.10
2017-12-25T06:18:46.201Z,2.00
2017-12-25T06:21:12.721Z,2.00
2017-12-25T06:23:39.100Z,2.00
2017-12-25T06:26:05.538Z,2.00
2017-12-25T06:28:31.925Z,1.90
2017-12-25T06:30:58.305Z,1.90
2017-12-25T06:33:24.786Z,1.80
2017-12-25T06:35:51.165Z,1.70
2017-12-25T06:38:17.559Z,1.70
2017-12-25T06:40:44.010Z,1.70
2017-12-25T06:43:10.438Z,1.70
2017-12-25T06:45:36.813Z,1.70
2017-12-25T06:48:03.202Z,1.80
2017-12-25T06:50:29.623Z,1.80
2017-12-25T06:52:55.982Z,1.80
2017-12-25T06:55:22.564Z,1.80
2017-12-25T06:57:49.740Z,2.00
2017-12-25T07:00:16.143Z,2.00
2017-12-25T07:02:43.253Z,2.10
2017-12-25T07:05:09.628Z,2.10
2017-12-25T07:07:36.161Z,2.10
2017-12-25T07:10:03.281Z,2.00
2017-12-25T07:12:29.674Z,2.00
2017-12-25T07:14:56.137Z,2.00
2017-12-25T07:17:22.507Z,2.00
2017-12-25T07:19:48.909Z,1.90
2017-12-25T07:22:15.273Z,1.90
2017-12-25T07:24:41.854Z,1.90
2017-12-25T07:27:08.265Z,1.90
2017-12-25T07:29:34.683Z,1.90
2017-12-25T07:32:01.049Z,1.90
2017-12-25T07:34:27.476Z,1.80
2017-12-25T07:36:53.841Z,1.80
2017-12-25T07:39:20.961Z,1.90
2017-12-25T07:41:47.351Z,1.80
2017-12-25T07:44:13.770Z,1.90
2017-12-25T07:46:40.999Z,2.00
2017-12-25T07:49:07.403Z,2.00
2017-12-25T07:51:33.758Z,1.90
2017-12-25T07:54:00.167Z,2.00
2017-12-25T07:56:26.554Z,1.90
2017-12-25T07:58:52.941Z,1.80
2017-12-25T08:01:19.378Z,1.90
2017-12-25T08:03:45.741Z,1.90
2017-12-25T08:06:12.878Z,1.90
2017-12-25T08:08:40.006Z,1.80
2017-12-25T08:11:07.246Z,1.80
2017-12-25T08:13:33.632Z,1.90
2017-12-25T08:16:06.955Z,1.80
2017-12-25T08:18:33.381Z,1.80
2017-12-25T08:20:59.761Z,1.90
2017-12-25T08:23:26.928Z,2.00
2017-12-25T08:25:53.385Z,2.00
2017-12-25T08:28:19.772Z,2.10
2017-12-25T08:30:46.958Z,2.30
2017-12-25T08:33:13.317Z,2.20
2017-12-25T08:35:39.714Z,2.30
2017-12-25T08:38:06.105Z,2.30
2017-12-25T08:40:32.550Z,2.20
2017-12-25T08:42:59.849Z,2.20
2017-12-25T08:45:26.216Z,2.20
2017-12-25T08:47:52.632Z,2.10
2017-12-25T08:50:19.089Z,2.10
2017-12-25T08:52:45.533Z,2.00
2017-12-25T08:55:12.632Z,1.70
2017-12-25T08:57:39.017Z,1.70
2017-12-25T09:00:06.213Z,1.60
2017-12-25T09:02:32.670Z,1.60
2017-12-25T09:04:59.115Z,2.10
2017-12-25T09:07:25.522Z,2.80
2017-12-25T09:09:51.968Z,3.30
2017-12-25T09:12:18.410Z,3.70
2017-12-25T09:14:44.967Z,4.40
2017-12-25T09:17:12.088Z,4.10
2017-12-25T09:19:38.518Z,4.10
2017-12-25T09:22:04.916Z,4.10
2017-12-25T09:24:31.382Z,4.30
2017-12-25T09:26:57.811Z,4.70
2017-12-25T09:29:24.158Z,5.30
2017-12-25T09:31:50.560Z,5.30
2017-12-25T09:34:16.993Z,5.70
2017-12-25T09:36:43.420Z,6.10
2017-12-25T09:39:16.855Z,5.90
2017-12-25T09:41:44.027Z,5.20
2017-12-25T09:44:10.439Z,5.20
2017-12-25T09:46:37.628Z,5.50
2017-12-25T09:49:04.105Z,5.50
2017-12-25T09:51:30.592Z,6.00
2017-12-25T09:53:57.021Z,6.80
2017-12-25T09:56:30.505Z,7.30
2017-12-25T09:58:56.956Z,7.90
2017-12-25T10:01:23.346Z,7.80
2017-12-25T10:03:50.533Z,7.50
2017-12-25T10:06:16.939Z,7.50
2017-12-25T10:08:45.031Z,8.00
2017-12-25T10:11:11.431Z,8.00
2017-12-25T10:13:38.842Z,7.30
2017-12-25T10:16:05.487Z,7.30
2017-12-25T10:18:32.105Z,7.50
2017-12-25T10:20:58.523Z,7.60
2017-12-25T10:23:24.957Z,7.30
2017-12-25T10:25:51.446Z,7.10
2017-12-25T10:28:17.821Z,7.10
2017-12-25T10:30:44.285Z,7.20
2017-12-25T10:33:10.665Z,7.60
2017-12-25T10:35:37.814Z,7.50
2017-12-25T10:38:04.225Z,7.50
2017-12-25T10:40:30.669Z,7.90
2017-12-25T10:42:57.944Z,7.20
2017-12-25T10:45:24.337Z,7.20
2017-12-25T10:47:50.729Z,6.10
2017-12-25T10:50:17.184Z,5.40
2017-12-25T10:52:43.609Z,5.10
2017-12-25T10:55:10.070Z,5.10
2017-12-25T10:57:36.490Z,5.30
2017-12-25T11:00:02.995Z,5.40
2017-12-25T11:02:29.385Z,5.90
2017-12-25T11:04:56.618Z,6.40
2017-12-25T11:07:22.990Z,6.40
2017-12-25T11:09:49.420Z,7.10
2017-12-25T11:12:15.808Z,7.70
2017-12-25T11:14:42.192Z,7.60
2017-12-25T11:17:08.591Z,7.60
2017-12-25T11:19:35.740Z,7.00
2017-12-25T11:22:02.885Z,6.90
2017-12-25T11:24:30.018Z,6.70
2017-12-25T11:26:56.450Z,6.70
2017-12-25T11:29:22.850Z,6.70
2017-12-25T11:31:49.235Z,6.70
2017-12-25T11:34:16.396Z,7.90
2017-12-25T11:36:42.821Z,7.90
2017-12-25T11:39:10.022Z,6.50
2017-12-25T11:41:36.438Z,6.50
2017-12-25T11:44:02.833Z,7.00
2017-12-25T11:46:29.950Z,7.80
2017-12-25T11:48:56.385Z,7.80
2017-12-25T11:51:22.767Z,7.90
2017-12-25T11:53:49.205Z,7.20
2017-12-25T11:56:15.702Z,7.20
2017-12-25T11:58:42.862Z,7.40
2017-12-25T12:01:09.226Z,7.40
2017-12-25T12:03:35.658Z,7.90
2017-12-25T12:06:02.072Z,7.90
2017-12-25T12:08:28.569Z,7.90
2017-12-25T12:10:55.713Z,8.50
2017-12-25T12:13:22.136Z,8.50
2017-12-25T12:15:48.633Z,9.20
2017-12-25T12:18:15.069Z,9.60
2017-12-25T12:20:41.520Z,9.00
2017-12-25T12:23:07.893Z,9.30
2017-12-25T12:25:35.135Z,10.30
2017-12-25T12:28:02.293Z,11.30
2017-12-25T12:30:29.414Z,10.40
2017-12-25T12:32:55.833Z,10.40
2017-12-25T12:35:22.196Z,11.00
2017-12-25T12:37:49.348Z,10.00
2017-12-25T12:40:16.502Z,8.70
2017-12-25T12:42:43.661Z,8.70
2017-12-25T12:45:10.785Z,9.60
2017-12-25T12:47:37.165Z,9.60
2017-12-25T12:50:03.690Z,9.90
2017-12-25T12:52:30.050Z,9.90
2017-12-25T12:54:56.473Z,11.00
2017-12-25T12:57:22.865Z,11.10
2017-12-25T12:59:50.042Z,10.70
2017-12-25T13:02:16.442Z,10.70
2017-12-25T13:04:43.551Z,10.90
2017-12-25T13:07:09.961Z,10.90
2017-12-25T13:09:36.509Z,10.80
2017-12-25T13:12:02.908Z,11.10
2017-12-25T13:14:29.350Z,11.20
2017-12-25T13:16:55.736Z,11.10
2017-12-25T13:19:22.169Z,10.30
2017-12-25T13:21:48.597Z,10.30
2017-12-25T13:24:15.010Z,10.70
2017-12-25T13:26:41.408Z,10.80
2017-12-25T13:29:07.878Z,10.60
2017-12-25T13:31:34.284Z,10.00
2017-12-25T13:34:00.726Z,10.10
2017-12-25T13:36:27.158Z,10.00
2017-12-25T13:38:53.567Z,9.80
2017-12-25T13:41:19.964Z,10.00
2017-12-25T13:43:47.121Z,9.60
2017-12-25T13:46:14.332Z,10.00
2017-12-25T13:48:40.765Z,10.00
2017-12-25T13:51:07.201Z,10.70
2017-12-25T13:53:33.587Z,10.10
2017-12-25T13:56:00.142Z,9.10
2017-12-25T13:58:26.627Z,7.80
2017-12-25T14:00:52.999Z,6.80
2017-12-25T14:03:19.393Z,6.40
2017-12-25T14:05:46.555Z,6.40
2017-12-25T14:08:12.961Z,6.30
2017-12-25T14:10:40.151Z,6.00
2017-12-25T14:13:06.544Z,6.00
2017-12-25T14:15:33.006Z,6.00
2017-12-25T14:17:59.420Z,5.60
2017-12-25T14:20:26.622Z,5.10
2017-12-25T14:22:53.030Z,5.10
2017-12-25T14:25:19.536Z,4.90
2017-12-25T14:27:46.729Z,5.10
2017-12-25T14:30:13.081Z,5.00
2017-12-25T14:32:39.502Z,5.10
2017-12-25T14:35:05.977Z,4.90
2017-12-25T14:37:32.361Z,4.90
2017-12-25T14:39:58.902Z,4.90
2017-12-25T14:42:25.536Z,4.60
2017-12-25T14:44:51.940Z,4.50
2017-12-25T14:47:25.339Z,4.40
2017-12-25T14:49:51.766Z,4.40
2017-12-25T14:52:18.181Z,4.30
2017-12-25T14:54:45.330Z,4.20
2017-12-25T14:57:12.537Z,4.20
2017-12-25T14:59:38.960Z,4.20
2017-12-25T15:02:05.385Z,4.40
2017-12-25T15:04:31.773Z,4.30
2017-12-25T15:06:58.970Z,4.00
2017-12-25T15:09:25.444Z,4.00
2017-12-25T15:11:51.883Z,3.90
2017-12-25T15:14:18.270Z,3.80
2017-12-25T15:16:44.772Z,3.70
2017-12-25T15:19:11.196Z,3.60
2017-12-25T15:21:37.584Z,3.50
2017-12-25T15:24:04.002Z,3.50
2017-12-25T15:26:30.434Z,3.40
2017-12-25T15:28:56.881Z,3.40
2017-12-25T15:31:23.330Z,3.40
2017-12-25T15:33:49.734Z,3.40
2017-12-25T15:36:16.192Z,3.30
2017-12-25T15:38:42.602Z,3.30
2017-12-25T15:41:09.009Z,3.20
2017-12-25T15:43:35.474Z,3.10
2017-12-25T15:46:01.967Z,3.00
2017-12-25T15:48:28.387Z,3.00
2017-12-25T15:50:55.528Z,3.00
2017-12-25T15:53:22.728Z,2.90
2017-12-25T15:55:49.130Z,2.90
2017-12-25T15:58:15.521Z,2.90
2017-12-25T16:00:41.989Z,2.90
2017-12-25T16:03:08.386Z,3.00
2017-12-25T16:05:34.796Z,3.00
2017-12-25T16:08:01.201Z,2.80
2017-12-25T16:10:27.649Z,2.80
2017-12-25T16:12:54.037Z,2.80
2017-12-25T16:15:21.209Z,2.80
2017-12-25T16:17:47.637Z,2.80
2017-12-25T16:20:14.121Z,2.90
2017-12-25T16:22:40.521Z,2.90
2017-12-25T16:25:06.972Z,2.80
2017-12-25T16:27:33.401Z,2.70
2017-12-25T16:29:59.816Z,2.60
2017-12-25T16:32:26.213Z,2.60
2017-12-25T16:34:53.398Z,2.40
2017-12-25T16:37:19.835Z,2.40
2017-12-25T16:39:46.265Z,2.40
2017-12-25T16:42:12.761Z,2.40
2017-12-25T16:44:40.095Z,2.30
2017-12-25T16:47:06.609Z,2.30
2017-12-25T16:49:32.998Z,2.30
2017-12-25T16:51:59.397Z,2.50
2017-12-25T16:54:26.541Z,2.20
2017-12-25T16:56:52.965Z,2.20
2017-12-25T16:59:19.402Z,2.10
2017-12-25T17:01:45.818Z,2.00
2017-12-25T17:04:12.261Z,2.00
2017-12-25T17:06:38.624Z,2.20
2017-12-25T17:09:05.182Z,2.30
2017-12-25T17:11:32.226Z,2.20
2017-12-25T17:13:58.662Z,2.10
2017-12-25T17:16:25.042Z,2.00
2017-12-25T17:18:51.425Z,2.20
2017-12-25T17:21:17.850Z,2.20
2017-12-25T17:23:44.246Z,2.30
2017-12-25T17:26:11.393Z,2.20
2017-12-25T17:28:38.917Z,2.10
2017-12-25T17:31:05.435Z,2.10
2017-12-25T17:33:31.886Z,2.10
2017-12-25T17:35:58.281Z,2.10
2017-12-25T17:38:24.721Z,2.00
2017-12-25T17:40:52.109Z,2.00
2017-12-25T17:43:18.608Z,1.90
2017-12-25T17:45:45.005Z,1.80
2017-12-25T17:48:12.217Z,1.70
2017-12-25T17:50:38.611Z,1.70
2017-12-25T17:53:05.087Z,1.70
2017-12-25T17:55:31.548Z,1.80
2017-12-25T17:57:58.709Z,1.70
2017-12-25T18:00:25.876Z,1.60
2017-12-25T18:02:52.269Z,1.60
2017-12-25T18:05:18.705Z,1.60
2017-12-25T18:07:45.077Z,1.60
2017-12-25T18:10:11.470Z,1.50
2017-12-25T18:12:37.914Z,1.50
2017-12-25T18:15:05.038Z,1.40
2017-12-25T18:17:31.545Z,1.40
2017-12-25T18:19:57.914Z,1.40
2017-12-25T18:22:24.406Z,1.40
2017-12-25T18:24:50.821Z,1.40
2017-12-25T18:27:17.240Z,1.40
2017-12-25T18:29:43.686Z,1.30
2017-12-25T18:32:10.240Z,1.40
2017-12-25T18:34:36.652Z,1.30
2017-12-25T18:37:03.469Z,1.20
2017-12-25T18:39:30.682Z,1.10
2017-12-25T18:41:57.077Z,1.10
2017-12-25T18:44:23.520Z,1.20
2017-12-25T18:46:49.932Z,1.10
2017-12-25T18:49:16.342Z,1.10
2017-12-25T18:51:43.566Z,0.90
2017-12-25T18:54:09.966Z,1.00
2017-12-25T18:56:36.465Z,0.90
2017-12-25T18:59:03.619Z,0.90
2017-12-25T19:01:30.131Z,0.90
2017-12-25T19:03:56.569Z,0.90
2017-12-25T19:06:23.730Z,0.70
2017-12-25T19:08:50.889Z,0.60
2017-12-25T19:11:17.275Z,0.60
2017-12-25T19:13:43.699Z,0.70
2017-12-25T19:16:10.127Z,0.70
2017-12-25T19:18:36.515Z,0.60
2017-12-25T19:21:03.157Z,0.50
2017-12-25T19:23:29.539Z,0.40
2017-12-25T19:25:56.019Z,0.40
2017-12-25T19:28:22.442Z,0.30
2017-12-25T19:30:49.622Z,0.40
2017-12-25T19:33:16.037Z,0.40
2017-12-25T19:35:42.684Z,0.30
2017-12-25T19:38:16.138Z,0.30
2017-12-25T19:40:42.731Z,0.20
2017-12-25T19:43:10.061Z,0.10
2017-12-25T19:45:36.474Z,0.10
2017-12-25T19:48:02.985Z,0.00
2017-12-25T19:50:29.426Z,-0.10
2017-12-25T19:52:55.892Z,-0.20
2017-12-25T19:55:22.743Z,-0.10
2017-12-25T19:57:49.196Z,-0.20
2017-12-25T20:00:15.632Z,-0.30
2017-12-25T20:02:42.057Z,-0.30
2017-12-25T20:05:08.485Z,-0.30
2017-12-25T20:07:34.897Z,-0.40
2017-12-25T20:10:01.279Z,-0.40
2017-12-25T20:12:27.738Z,-0.50
2017-12-25T20:14:54.853Z,-0.60
2017-12-25T20:17:21.298Z,-0.60
2017-12-25T20:19:48.038Z,-0.60
2017-12-25T20:22:14.929Z,-0.60
2017-12-25T20:24:41.397Z,-0.60
2017-12-25T20:27:08.390Z,-0.50
2017-12-25T20:29:35.802Z,-0.60
2017-12-25T20:32:02.617Z,-0.70
2017-12-25T20:34:29.197Z,-0.80
2017-12-25T20:36:56.466Z,-0.80
2017-12-25T20:39:23.656Z,-0.70
2017-12-25T20:41:50.171Z,-0.70
2017-12-25T20:44:16.705Z,-0.70
2017-12-25T20:46:43.267Z,-0.70
2017-12-25T20:49:09.770Z,-0.70
2017-12-25T20:51:36.383Z,-0.70
2017-12-25T20:54:04.570Z,-0.70
2017-12-25T20:56:31.881Z,-0.70
2017-12-25T20:58:58.319Z,-0.70
2017-12-25T21:01:24.928Z,-0.80
2017-12-25T21:03:51.378Z,-0.80
2017-12-25T21:06:17.871Z,-0.90
2017-12-25T21:08:44.469Z,-0.90
2017-12-25T21:11:11.118Z,-1.10
2017-12-25T21:13:38.467Z,-1.00
2017-12-25T21:16:05.217Z,-1.00
2017-12-25T21:18:31.991Z,-1.00
2017-12-25T21:20:58.482Z,-1.00
2017-12-25T21:23:25.694Z,-0.90
2017-12-25T21:25:52.174Z,-0.90
2017-12-25T21:28:19.346Z,-1.00
2017-12-25T21:30:45.795Z,-1.10
2017-12-25T21:33:12.249Z,-1.00
2017-12-25T21:35:38.675Z,-1.00
2017-12-25T21:38:05.130Z,-1.00
2017-12-25T21:40:31.975Z,-1.00
2017-12-25T21:42:58.489Z,-1.00
2017-12-25T21:45:25.287Z,-1.00
2017-12-25T21:47:52.003Z,-1.00
2017-12-25T21:50:19.197Z,-0.90
2017-12-25T21:52:47.410Z,-1.00
2017-12-25T21:55:13.901Z,-0.90
2017-12-25T21:57:40.352Z,-1.10
2017-12-25T22:00:06.868Z,-1.10
2017-12-25T22:02:33.316Z,-1.10
2017-12-25T22:04:59.741Z,-1.20
2017-12-25T22:07:26.290Z,-1.20
2017-12-25T22:09:52.726Z,-1.20
2017-12-25T22:12:19.190Z,-1.20
2017-12-25T22:14:46.420Z,-1.20
2017-12-25T22:17:12.823Z,-1.20
2017-12-25T22:19:39.269Z,-1.10
2017-12-25T22:22:05.668Z,-1.20
2017-12-25T22:24:32.079Z,-1.20
2017-12-25T22:26:59.388Z,-1.30
2017-12-25T22:29:25.788Z,-1.30
2017-12-25T22:31:59.175Z,-1.40
2017-12-25T22:34:25.581Z,-1.50
2017-12-25T22:36:52.749Z,-1.50
2017-12-25T22:39:19.202Z,-1.60
2017-12-25T22:41:45.610Z,-1.50
2017-12-25T22:44:12.738Z,-1.40
2017-12-25T22:46:39.931Z,-1.50
2017-12-25T22:49:06.412Z,-1.50
2017-12-25T22:51:32.777Z,-1.50
2017-12-25T22:53:59.368Z,-1.50
2017-12-25T22:56:25.817Z,-1.50
2017-12-25T22:58:52.245Z,-1.50
2017-12-25T23:01:18.770Z,-1.50
2017-12-25T23:03:45.230Z,-1.50
2017-12-25T23:06:12.509Z,-1.50
2017-12-25T23:08:38.924Z,-1.50
2017-12-25T23:11:06.092Z,-1.50
2017-12-25T23:13:32.520Z,-1.50
2017-12-25T23:15:58.908Z,-1.50
2017-12-25T23:18:25.367Z,-1.50
2017-12-25T23:20:52.552Z,-1.50
2017-12-25T23:23:18.930Z,-1.50
2017-12-25T23:25:45.350Z,-1.60
2017-12-25T23:28:11.762Z,-1.60
2017-12-25T23:30:38.204Z,-1.60
2017-12-25T23:33:04.610Z,-1.60
2017-12-25T23:35:30.981Z,-1.60
2017-12-25T23:37:57.505Z,-1.60
2017-12-25T23:40:23.904Z,-1.60
2017-12-25T23:42:50.271Z,-1.60
2017-12-25T23:45:16.741Z,-1.60
2017-12-25T23:47:43.118Z,-1.60
2017-12-25T23:50:09.569Z,-1.50
2017-12-25T23:52:35.957Z,-1.60
2017-12-25T23:55:02.385Z,-1.70
2017-12-25T23:57:28.873Z,-1.60
2017-12-25T23:59:55.272Z,-1.70
